Time;durP1;ratioP1;P1;durP2;ratioP2;P2;SDS_P1;SDS_P2;PMS_P1;PMS_P2;Temp;Humidity;BMP_temperature;BMP_pressure;BME280_temperature;BME280_humidity;BME280_pressure;Samples;Min_cycle;Max_cycle;Signal;HPM_P1;HPM_P2
2023/08/24 00:00:57;;;;;;;11.50;10.40;;;;;;;;;;2616177;54;20396;-74
2023/08/24 00:06:27;;;;;;;11.73;10.53;;;;;;;;;;2616002;54;20395;-74
2023/08/24 00:11:56;;;;;;;15.50;10.30;;;;;;;;;;2615181;54;20423;-70
2023/08/24 00:17:26;;;;;;;10.80;9.90;;;;;;;;;;2615976;39;20786;-73
2023/08/24 00:22:55;;;;;;;12.10;10.73;;;;;;;;;;2615305;54;20391;-71
2023/08/24 00:28:25;;;;;;;14.10;11.20;;;;;;;;;;2615188;54;20403;-69
2023/08/24 00:33:55;;;;;;;12.73;11.37;;;;;;;;;;2614298;54;20374;-70
2023/08/24 00:39:25;;;;;;;17.63;11.77;;;;;;;;;;2615243;54;20423;-71
2023/08/24 00:48:28;;;;;;;14.23;12.00;;;;;;;;;;2615037;54;20519;-73
2023/08/24 00:53:58;;;;;;;12.43;11.33;;;;;;;;;;2614834;54;20382;-73
2023/08/24 00:59:28;;;;;;;11.80;10.67;;;;;;;;;;2615698;54;20390;-73
2023/08/24 01:04:58;;;;;;;12.27;10.97;;;;;;;;;;2615083;54;20406;-73
2023/08/24 01:10:31;;;;;;;14.20;10.17;;;;;;;;;;2614773;54;20853;-73
2023/08/24 01:22:02;;;;;;;12.47;10.50;;;;;;;;;;2614668;54;20470;-73
2023/08/24 01:27:34;;;;;;;12.47;11.00;;;;;;;;;;2615288;39;20775;-73
2023/08/24 01:33:04;;;;;;;10.63;9.73;;;;;;;;;;2614689;54;20443;-73
2023/08/24 01:38:34;;;;;;;12.17;10.40;;;;;;;;;;2615390;47;20483;-72
2023/08/24 01:50:11;;;;;;;13.40;11.73;;;;;;;;;;2615388;54;20351;-72
2023/08/24 01:55:41;;;;;;;14.77;11.33;;;;;;;;;;2614833;54;20428;-72
2023/08/24 02:01:12;;;;;;;14.73;12.43;;;;;;;;;;2615224;54;20350;-71
2023/08/24 02:06:42;;;;;;;13.23;11.80;;;;;;;;;;2615522;39;20757;-72
2023/08/24 02:12:11;;;;;;;12.37;11.20;;;;;;;;;;2615040;54;20435;-71
2023/08/24 02:17:41;;;;;;;12.53;10.83;;;;;;;;;;2615364;54;20414;-70
2023/08/24 02:23:10;;;;;;;13.40;12.10;;;;;;;;;;2614792;54;20359;-69
2023/08/24 02:28:40;;;;;;;12.97;11.73;;;;;;;;;;2614942;54;20889;-69
2023/08/24 02:34:10;;;;;;;17.20;12.83;;;;;;;;;;2614999;54;20519;-70
2023/08/24 02:39:39;;;;;;;12.03;10.93;;;;;;;;;;2614893;54;20363;-69
2023/08/24 02:48:41;;;;;;;14.13;11.50;;;;;;;;;;2615059;54;20981;-70
2023/08/24 02:54:10;;;;;;;12.53;11.20;;;;;;;;;;2615040;54;20390;-71
2023/08/24 02:59:43;;;;;;;11.93;10.80;;;;;;;;;;2615372;54;20447;-70
2023/08/24 03:05:13;;;;;;;12.63;11.40;;;;;;;;;;2614270;54;20382;-70
2023/08/24 03:10:42;;;;;;;13.00;11.00;;;;;;;;;;2613844;54;20496;-73
2023/08/24 03:16:12;;;;;;;15.40;12.27;;;;;;;;;;2614860;54;20383;-73
2023/08/24 03:21:42;;;;;;;13.37;11.97;;;;;;;;;;2614571;54;20359;-73
2023/08/24 03:27:11;;;;;;;14.77;12.00;;;;;;;;;;2614492;54;20447;-73
2023/08/24 03:32:41;;;;;;;20.80;11.77;;;;;;;;;;2614757;54;20467;-72
2023/08/24 03:38:11;;;;;;;13.83;12.43;;;;;;;;;;2614827;54;20933;-73
2023/08/24 03:43:40;;;;;;;14.60;12.30;;;;;;;;;;2614325;54;20410;-73
2023/08/24 03:49:10;;;;;;;12.17;10.90;;;;;;;;;;2614573;54;20378;-72
2023/08/24 03:54:40;;;;;;;12.83;11.57;;;;;;;;;;2614452;54;20419;-73
2023/08/24 04:00:11;;;;;;;15.13;12.40;;;;;;;;;;2615157;39;20500;-73
2023/08/24 04:05:40;;;;;;;14.83;10.93;;;;;;;;;;2615286;31;20809;-73
2023/08/24 04:11:10;;;;;;;12.20;10.67;;;;;;;;;;2614425;54;20347;-73
2023/08/24 04:16:39;;;;;;;10.97;10.07;;;;;;;;;;2614510;54;20402;-73
2023/08/24 04:22:09;;;;;;;12.07;11.00;;;;;;;;;;2614493;54;20367;-73
2023/08/24 04:27:38;;;;;;;13.93;11.33;;;;;;;;;;2614266;54;20444;-73
2023/08/24 04:33:08;;;;;;;11.60;10.40;;;;;;;;;;2614659;39;20859;-73
2023/08/24 04:38:37;;;;;;;12.60;10.23;;;;;;;;;;2614454;54;20355;-72
2023/08/24 04:44:07;;;;;;;17.83;11.47;;;;;;;;;;2613646;47;20366;-72
2023/08/24 04:49:37;;;;;;;13.70;11.10;;;;;;;;;;2616023;31;20898;-73
2023/08/24 04:55:08;;;;;;;13.73;12.33;;;;;;;;;;2615998;31;20803;-73
2023/08/24 05:00:38;;;;;;;21.97;13.50;;;;;;;;;;2614850;54;20394;-73
2023/08/24 05:06:08;;;;;;;13.50;11.97;;;;;;;;;;2615121;54;20471;-72
2023/08/24 05:11:37;;;;;;;18.20;11.90;;;;;;;;;;2614827;54;20395;-73
2023/08/24 05:17:07;;;;;;;12.73;11.30;;;;;;;;;;2615326;39;20751;-73
2023/08/24 05:22:37;;;;;;;13.40;12.00;;;;;;;;;;2615245;46;20382;-73
2023/08/24 05:28:08;;;;;;;13.47;10.20;;;;;;;;;;2615053;54;20965;-70
2023/08/24 05:33:37;;;;;;;15.37;10.27;;;;;;;;;;2614780;54;20383;-75
2023/08/24 05:39:07;;;;;;;11.83;9.97;;;;;;;;;;2615121;54;20351;-74
2023/08/24 05:50:47;;;;;;;9.73;8.27;;;;;;;;;;2614891;54;20379;-72
2023/08/24 05:56:17;;;;;;;8.33;7.37;;;;;;;;;;2614589;54;20355;-74
2023/08/24 06:01:46;;;;;;;9.70;7.70;;;;;;;;;;2615018;54;20419;-75
2023/08/24 06:07:16;;;;;;;9.10;8.30;;;;;;;;;;2615053;39;20771;-74
2023/08/24 06:12:45;;;;;;;13.40;8.60;;;;;;;;;;2614852;54;20418;-74
2023/08/24 06:18:16;;;;;;;11.87;8.67;;;;;;;;;;2615252;54;20403;-72
2023/08/24 06:23:47;;;;;;;12.07;8.83;;;;;;;;;;2615198;54;20390;-70
2023/08/24 06:29:16;;;;;;;10.00;9.10;;;;;;;;;;2615402;39;20759;-71
2023/08/24 06:34:46;;;;;;;12.00;9.50;;;;;;;;;;2614893;54;20378;-70
2023/08/24 06:40:17;;;;;;;11.80;10.07;;;;;;;;;;2615229;54;20949;-70
2023/08/24 06:55:16;;;;;;;12.60;11.37;;;;;;;;;;2613528;54;20401;-71
2023/08/24 07:00:45;;;;;;;15.70;11.53;;;;;;;;;;2613836;54;20428;-69
2023/08/24 07:06:14;;;;;;;16.83;12.93;;;;;;;;;;2613131;54;20355;-70
2023/08/24 07:11:45;;;;;;;14.80;13.57;;;;;;;;;;2613499;54;20390;-69
2023/08/24 07:17:14;;;;;;;16.90;15.07;;;;;;;;;;2613440;46;20404;-71
2023/08/24 07:22:43;;;;;;;17.40;15.90;;;;;;;;;;2614082;54;20403;-71
2023/08/24 07:28:13;;;;;;;16.10;14.87;;;;;;;;;;2615063;54;21072;-70
2023/08/24 07:33:45;;;;;;;17.57;16.13;;;;;;;;;;2614930;54;20383;-71
2023/08/24 07:39:15;;;;;;;17.80;16.30;;;;;;;;;;2614689;54;20387;-70
2023/08/24 07:44:45;;;;;;;16.57;15.53;;;;;;;;;;2614603;54;20387;-71
2023/08/24 07:50:15;;;;;;;17.43;15.80;;;;;;;;;;2614508;54;20441;-72
2023/08/24 07:55:45;;;;;;;20.20;16.83;;;;;;;;;;2614813;54;20403;-72
2023/08/24 08:01:15;;;;;;;17.43;15.97;;;;;;;;;;2614402;54;20913;-72
2023/08/24 08:06:45;;;;;;;17.00;15.70;;;;;;;;;;2613579;54;20390;-73
2023/08/24 08:12:14;;;;;;;17.23;15.83;;;;;;;;;;2614358;54;20366;-73
2023/08/24 08:17:44;;;;;;;16.80;15.80;;;;;;;;;;2614331;54;20351;-72
2023/08/24 08:23:14;;;;;;;19.07;17.63;;;;;;;;;;2615582;39;21020;-73
2023/08/24 08:28:44;;;;;;;17.73;16.23;;;;;;;;;;2616036;54;20843;-72
2023/08/24 08:34:13;;;;;;;17.67;16.50;;;;;;;;;;2615305;54;21222;-71
2023/08/24 08:39:43;;;;;;;17.13;15.80;;;;;;;;;;2615269;54;20415;-70
2023/08/24 08:45:13;;;;;;;16.20;15.20;;;;;;;;;;2615574;54;20410;-72
2023/08/24 08:56:50;;;;;;;15.90;14.70;;;;;;;;;;2614650;54;20375;-71
2023/08/24 09:02:21;;;;;;;16.57;15.43;;;;;;;;;;2615107;54;20406;-74
2023/08/24 09:07:50;;;;;;;15.20;14.40;;;;;;;;;;2615432;54;20411;-73
2023/08/24 09:13:19;;;;;;;15.30;14.20;;;;;;;;;;2614738;54;20379;-74
2023/08/24 09:16:04;;;;;;;14.50;13.70;;;;;;;;;;2614326;54;20387;-74
2023/08/24 09:18:38;;;;;;;14.47;13.73;;;;;;;;;;2614880;39;21090;-74
2023/08/24 09:24:07;;;;;;;14.70;13.77;;;;;;;;;;2615103;54;20945;-73
2023/08/24 09:29:38;;;;;;;16.60;15.20;;;;;;;;;;2615431;39;20757;-73
2023/08/24 09:35:11;;;;;;;14.40;13.70;;;;;;;;;;2614858;54;20448;-73
2023/08/24 09:40:47;;;;;;;14.47;13.77;;;;;;;;;;2615427;39;20716;-73
2023/08/24 09:46:22;;;;;;;14.20;13.50;;;;;;;;;;2614940;54;20469;-74
2023/08/24 09:55:26;;;;;;;15.50;14.70;;;;;;;;;;2614637;54;20429;-73
2023/08/24 10:00:56;;;;;;;16.20;15.43;;;;;;;;;;2613788;54;20354;-73
2023/08/24 10:06:29;;;;;;;16.30;15.50;;;;;;;;;;2614581;54;20468;-73
2023/08/24 10:12:00;;;;;;;15.97;15.17;;;;;;;;;;2614947;54;20390;-74
2023/08/24 10:17:32;;;;;;;15.63;14.83;;;;;;;;;;2615061;39;20779;-72
2023/08/24 10:23:02;;;;;;;15.13;14.23;;;;;;;;;;2615129;54;20480;-73
2023/08/24 10:28:33;;;;;;;15.83;14.70;;;;;;;;;;2614810;54;20487;-74
2023/08/24 10:34:03;;;;;;;15.90;15.00;;;;;;;;;;2614552;54;20422;-74
2023/08/24 10:39:35;;;;;;;16.50;15.50;;;;;;;;;;2614795;54;20910;-73
2023/08/24 10:45:05;;;;;;;16.83;15.67;;;;;;;;;;2614882;54;20381;-76
2023/08/24 10:50:34;;;;;;;16.10;15.17;;;;;;;;;;2614480;54;20387;-73
2023/08/24 10:56:17;;;;;;;15.07;14.07;;;;;;;;;;2614862;54;20366;-72
2023/08/24 11:01:54;;;;;;;15.00;14.20;;;;;;;;;;2614435;54;20339;-72
2023/08/24 11:07:23;;;;;;;15.93;14.37;;;;;;;;;;2614116;54;20390;-74
2023/08/24 11:13:05;;;;;;;15.30;14.50;;;;;;;;;;2614383;54;20949;-75
2023/08/24 11:18:40;;;;;;;14.50;13.90;;;;;;;;;;2614373;54;20383;-73
2023/08/24 11:24:10;;;;;;;15.50;14.47;;;;;;;;;;2614947;54;21075;-74
2023/08/24 11:29:40;;;;;;;16.07;15.27;;;;;;;;;;2615027;54;20367;-73
2023/08/24 11:35:12;;;;;;;15.10;14.30;;;;;;;;;;2615244;54;20379;-75
2023/08/24 11:40:42;;;;;;;15.33;14.50;;;;;;;;;;2615128;54;20382;-73
2023/08/24 11:46:13;;;;;;;15.17;14.27;;;;;;;;;;2614866;54;20390;-73
2023/08/24 11:57:49;;;;;;;15.50;14.70;;;;;;;;;;2614900;39;20741;-74
2023/08/24 12:03:18;;;;;;;16.43;15.53;;;;;;;;;;2614255;54;20407;-74
2023/08/24 12:08:48;;;;;;;14.73;13.90;;;;;;;;;;2614242;54;20374;-74
2023/08/24 12:14:18;;;;;;;14.60;13.80;;;;;;;;;;2613986;54;20443;-74
2023/08/24 12:25:46;;;;;;;14.80;13.90;;;;;;;;;;2614320;54;20343;-75
2023/08/24 12:31:17;;;;;;;15.60;14.13;;;;;;;;;;2614446;54;20448;-71
2023/08/24 12:36:46;;;;;;;14.30;13.50;;;;;;;;;;2614599;54;20396;-71
2023/08/24 12:42:16;;;;;;;15.23;14.33;;;;;;;;;;2613958;54;20984;-70
2023/08/24 12:47:46;;;;;;;15.70;14.20;;;;;;;;;;2614358;54;20395;-71
2023/08/24 12:56:56;;;;;;;15.33;14.07;;;;;;;;;;2614492;54;20402;-70
2023/08/24 13:02:26;;;;;;;13.87;13.13;;;;;;;;;;2614446;54;20371;-72
2023/08/24 13:07:56;;;;;;;13.80;13.00;;;;;;;;;;2614898;54;20354;-70
2023/08/24 13:13:25;;;;;;;13.27;12.10;;;;;;;;;;2615448;39;20968;-70
2023/08/24 13:18:55;;;;;;;12.07;11.27;;;;;;;;;;2614880;54;20372;-70
2023/08/24 13:24:25;;;;;;;13.63;12.53;;;;;;;;;;2614684;54;20406;-72
2023/08/24 13:29:56;;;;;;;13.40;12.50;;;;;;;;;;2614964;54;20414;-70
2023/08/24 13:35:26;;;;;;;16.77;12.10;;;;;;;;;;2614915;54;20383;-70
2023/08/24 13:40:55;;;;;;;13.57;12.57;;;;;;;;;;2614884;46;20411;-73
2023/08/24 13:46:25;;;;;;;13.73;12.67;;;;;;;;;;2614638;54;20921;-73
2023/08/24 13:51:54;;;;;;;13.67;12.90;;;;;;;;;;2614628;54;21376;-73
2023/08/24 13:57:24;;;;;;;16.57;12.53;;;;;;;;;;2614809;39;20794;-73
2023/08/24 14:02:54;;;;;;;14.60;13.40;;;;;;;;;;2614760;54;20435;-73
2023/08/24 14:08:24;;;;;;;13.57;12.73;;;;;;;;;;2614642;46;20385;-73
2023/08/24 14:13:53;;;;;;;13.43;12.53;;;;;;;;;;2614768;54;21243;-73
2023/08/24 14:19:24;;;;;;;14.23;13.33;;;;;;;;;;2614483;54;20363;-73
2023/08/24 14:24:53;;;;;;;13.77;12.80;;;;;;;;;;2614594;54;20359;-73
2023/08/24 14:30:23;;;;;;;17.00;13.37;;;;;;;;;;2614531;54;20383;-73
2023/08/24 14:35:53;;;;;;;13.63;12.53;;;;;;;;;;2614696;54;20347;-72
2023/08/24 14:41:23;;;;;;;12.33;11.50;;;;;;;;;;2614959;54;20383;-74
2023/08/24 14:46:52;;;;;;;13.90;12.80;;;;;;;;;;2614568;54;20606;-72
2023/08/24 14:52:22;;;;;;;13.23;12.33;;;;;;;;;;2614511;54;20507;-75
2023/08/24 14:57:52;;;;;;;12.50;11.70;;;;;;;;;;2614597;54;20484;-76
2023/08/24 15:03:22;;;;;;;12.63;11.73;;;;;;;;;;2614602;39;20440;-74
2023/08/24 15:08:52;;;;;;;13.23;11.60;;;;;;;;;;2615045;54;20395;-75
2023/08/24 15:14:21;;;;;;;12.10;11.33;;;;;;;;;;2614101;54;20480;-74
2023/08/24 15:19:51;;;;;;;13.07;11.90;;;;;;;;;;2614452;54;20351;-75
2023/08/24 15:25:21;;;;;;;12.17;10.90;;;;;;;;;;2614645;39;20864;-74
2023/08/24 15:30:50;;;;;;;12.50;11.40;;;;;;;;;;2614527;54;20898;-75
2023/08/24 15:36:20;;;;;;;10.90;10.00;;;;;;;;;;2614877;54;20383;-74
2023/08/24 15:41:50;;;;;;;10.43;9.33;;;;;;;;;;2615020;54;20509;-75
2023/08/24 15:47:19;;;;;;;11.57;10.10;;;;;;;;;;2614217;54;20363;-75
2023/08/24 15:58:56;;;;;;;12.20;10.03;;;;;;;;;;2614611;39;20764;-76
2023/08/24 16:04:26;;;;;;;9.73;8.93;;;;;;;;;;2614130;54;20438;-76
2023/08/24 16:09:55;;;;;;;12.47;6.80;;;;;;;;;;2614166;54;20406;-73
2023/08/24 16:15:25;;;;;;;8.30;6.70;;;;;;;;;;2614772;54;20930;-75
2023/08/24 16:20:54;;;;;;;9.17;8.27;;;;;;;;;;2614436;54;20957;-72
2023/08/24 16:26:24;;;;;;;7.67;7.07;;;;;;;;;;2614156;54;20354;-74
2023/08/24 16:31:54;;;;;;;8.30;7.40;;;;;;;;;;2614168;54;20571;-73
2023/08/24 16:37:24;;;;;;;8.20;6.93;;;;;;;;;;2614437;54;20533;-73
2023/08/24 16:42:53;;;;;;;9.00;8.13;;;;;;;;;;2615078;54;21249;-74
2023/08/24 16:48:23;;;;;;;11.93;8.10;;;;;;;;;;2615213;54;21194;-74
2023/08/24 17:03:16;;;;;;;7.50;5.87;;;;;;;;;;2613257;54;20379;-73
2023/08/24 17:08:45;;;;;;;5.60;3.70;;;;;;;;;;2613823;54;20412;-75
2023/08/24 17:14:14;;;;;;;5.97;3.53;;;;;;;;;;2613476;54;20495;-73
2023/08/24 17:19:43;;;;;;;4.90;3.67;;;;;;;;;;2613453;54;20379;-74
2023/08/24 17:25:12;;;;;;;6.23;4.60;;;;;;;;;;2613635;54;20387;-73
2023/08/24 17:30:46;;;;;;;5.90;4.10;;;;;;;;;;2613932;39;20785;-73
2023/08/24 17:36:15;;;;;;;4.03;3.40;;;;;;;;;;2614485;54;20491;-73
2023/08/24 17:41:46;;;;;;;7.00;4.17;;;;;;;;;;2614801;46;20427;-73
2023/08/24 17:47:16;;;;;;;4.87;4.37;;;;;;;;;;2615149;39;20761;-73
2023/08/24 17:52:45;;;;;;;6.80;4.33;;;;;;;;;;2614426;54;20351;-73
2023/08/24 17:58:15;;;;;;;6.07;4.83;;;;;;;;;;2614625;54;20387;-72
2023/08/24 18:03:44;;;;;;;5.90;5.30;;;;;;;;;;2614434;54;20359;-74
2023/08/24 18:09:15;;;;;;;8.57;5.50;;;;;;;;;;2614860;54;20402;-73
2023/08/24 18:14:44;;;;;;;8.17;4.77;;;;;;;;;;2614949;54;21049;-73
2023/08/24 18:20:15;;;;;;;5.53;5.03;;;;;;;;;;2614561;46;20414;-74
2023/08/24 18:25:45;;;;;;;5.83;5.23;;;;;;;;;;2615012;54;20354;-70
2023/08/24 18:31:15;;;;;;;8.93;5.40;;;;;;;;;;2615067;54;20391;-70
2023/08/24 18:36:45;;;;;;;7.60;4.90;;;;;;;;;;2615712;39;20762;-73
2023/08/24 18:42:14;;;;;;;6.00;4.80;;;;;;;;;;2614320;54;20366;-72
2023/08/24 18:47:44;;;;;;;10.60;4.77;;;;;;;;;;2615329;39;21092;-74
2023/08/24 18:59:22;;;;;;;9.00;6.10;;;;;;;;;;2615540;39;20776;-70
2023/08/24 19:04:51;;;;;;;5.73;4.77;;;;;;;;;;2614914;54;20375;-70
2023/08/24 19:10:21;;;;;;;7.43;5.20;;;;;;;;;;2614993;54;20491;-70
2023/08/24 19:15:50;;;;;;;4.83;4.43;;;;;;;;;;2615212;54;20499;-70
2023/08/24 19:21:22;;;;;;;7.00;5.50;;;;;;;;;;2615039;54;20483;-72
2023/08/24 19:26:51;;;;;;;8.70;5.20;;;;;;;;;;2614917;54;20371;-71
2023/08/24 19:32:21;;;;;;;7.10;5.40;;;;;;;;;;2614619;46;20379;-74
2023/08/24 19:37:51;;;;;;;8.83;5.40;;;;;;;;;;2614771;54;20903;-74
2023/08/24 19:43:21;;;;;;;11.70;5.83;;;;;;;;;;2614607;54;20403;-75
2023/08/24 19:48:50;;;;;;;9.80;5.30;;;;;;;;;;2614789;54;20902;-75
2023/08/24 19:57:57;;;;;;;6.60;5.80;;;;;;;;;;2614456;54;20442;-75
2023/08/24 20:03:27;;;;;;;6.27;5.67;;;;;;;;;;2614655;54;20395;-74
2023/08/24 20:08:57;;;;;;;7.57;6.20;;;;;;;;;;2614695;54;20350;-74
2023/08/24 20:14:27;;;;;;;7.60;6.53;;;;;;;;;;2614450;54;20563;-74
2023/08/24 20:19:57;;;;;;;12.80;7.20;;;;;;;;;;2615272;54;20390;-75
2023/08/24 20:25:27;;;;;;;11.60;6.70;;;;;;;;;;2615267;54;20375;-75
2023/08/24 20:30:58;;;;;;;8.53;7.03;;;;;;;;;;2615293;54;20407;-73
2023/08/24 20:36:28;;;;;;;12.30;7.73;;;;;;;;;;2614989;54;20495;-73
2023/08/24 20:42:16;;;;;;;8.33;7.40;;;;;;;;;;2615680;54;20421;-74
2023/08/24 20:47:46;;;;;;;8.00;6.00;;;;;;;;;;2615692;54;20933;-74
2023/08/24 20:53:17;;;;;;;11.53;6.67;;;;;;;;;;2615566;54;20382;-74
2023/08/24 20:58:49;;;;;;;7.13;6.43;;;;;;;;;;2615897;54;20383;-74
2023/08/24 21:04:18;;;;;;;11.07;7.87;;;;;;;;;;2615919;54;20358;-73
2023/08/24 21:09:48;;;;;;;12.87;7.73;;;;;;;;;;2615809;54;20383;-74
2023/08/24 21:12:32;;;;;;;11.73;8.10;;;;;;;;;;2614750;54;21036;-74
2023/08/24 21:14:59;;;;;;;9.30;7.77;;;;;;;;;;2615551;54;20414;-74
2023/08/24 21:20:28;;;;;;;13.63;7.60;;;;;;;;;;2615794;39;20744;-73
2023/08/24 21:25:58;;;;;;;10.37;7.07;;;;;;;;;;2615458;54;20430;-73
2023/08/24 21:31:28;;;;;;;12.17;8.10;;;;;;;;;;2615670;54;20419;-74
2023/08/24 21:36:59;;;;;;;10.03;7.30;;;;;;;;;;2615744;54;20430;-74
2023/08/24 21:42:29;;;;;;;11.40;7.47;;;;;;;;;;2615283;54;20442;-74
2023/08/24 21:47:58;;;;;;;10.13;8.47;;;;;;;;;;2615321;54;20419;-74
2023/08/24 21:53:28;;;;;;;9.30;7.03;;;;;;;;;;2615048;54;20503;-74
2023/08/24 21:58:58;;;;;;;10.40;7.30;;;;;;;;;;2615278;54;20395;-74
2023/08/24 22:04:27;;;;;;;10.47;7.67;;;;;;;;;;2615337;54;20459;-74
2023/08/24 22:09:57;;;;;;;8.80;7.60;;;;;;;;;;2615800;54;20402;-74
2023/08/24 22:15:27;;;;;;;7.30;6.50;;;;;;;;;;2615831;39;20772;-74
2023/08/24 22:20:57;;;;;;;10.33;7.10;;;;;;;;;;2615131;54;20382;-74
2023/08/24 22:26:26;;;;;;;7.97;6.57;;;;;;;;;;2615112;54;20359;-74
2023/08/24 22:31:56;;;;;;;10.43;6.70;;;;;;;;;;2615279;46;20421;-71
2023/08/24 22:37:25;;;;;;;7.43;6.20;;;;;;;;;;2615307;54;20379;-71
2023/08/24 22:42:55;;;;;;;9.10;5.70;;;;;;;;;;2614738;39;20431;-70
2023/08/24 22:48:25;;;;;;;10.30;5.70;;;;;;;;;;2615298;54;20367;-72
2023/08/24 23:00:06;;;;;;;7.10;5.20;;;;;;;;;;2615321;39;20457;-70
2023/08/24 23:05:36;;;;;;;6.57;5.40;;;;;;;;;;2614908;54;20375;-75
2023/08/24 23:11:06;;;;;;;12.23;5.30;;;;;;;;;;2614524;54;20379;-76
2023/08/24 23:16:37;;;;;;;8.03;4.80;;;;;;;;;;2615283;54;20905;-75
2023/08/24 23:22:07;;;;;;;8.67;4.90;;;;;;;;;;2614728;54;20350;-76
2023/08/24 23:27:37;;;;;;;6.50;4.80;;;;;;;;;;2614663;54;20402;-75
2023/08/24 23:33:07;;;;;;;7.07;5.30;;;;;;;;;;2614284;54;20383;-75
2023/08/24 23:38:36;;;;;;;9.03;5.40;;;;;;;;;;2614706;54;20391;-75
2023/08/24 23:44:06;;;;;;;7.57;5.33;;;;;;;;;;2614547;54;20947;-74
2023/08/24 23:49:36;;;;;;;6.30;5.60;;;;;;;;;;2614995;54;20487;-73
2023/08/24 23:58:46;;;;;;;6.37;4.73;;;;;;;;;;2614725;54;20387;-74
